Paragould, AR (72451)

4:04 AM CDT on July 26, 2016 (GMT -0500)
William White Subdivision | | Change Station

Elev 331 ft 36.05 °N, 90.50 °W | Updated 0 second ago

Clear
Clear
77.9 °F
Feels Like 80 °F
N
0.0
Wind Variable Wind from NE
Gusts 0.0 mph

Today
High -- | Low -- °F
--% Chance of Precip.
Yesterday
High -- | Low -- °F
Precip. -- in
Pressure 29.97 in
Visibility 6.0 miles
Clouds Clear
Heat Index 80 °F
Dew Point 63 °F
Humidity 60%
Rainfall 0.00 in
Snow Depth Not available.
6:04 AM 8:11 PM
Waning Gibbous, 57% visible
METAR KJBR 260853Z AUTO 07005KT 6SM BR CLR 26/24 A2998 RMK AO2 SLP147 T02560244 53002 $
Pressure 29.97 in
Visibility 6.0 miles
Clouds Clear
Heat Index 80 °F
Dew Point 63 °F
Humidity 60%
Rainfall 0.00 in
Snow Depth Not available.
6:04 AM 8:11 PM
Waning Gibbous, 57% visible
METAR KJBR 260853Z AUTO 07005KT 6SM BR CLR 26/24 A2998 RMK AO2 SLP147 T02560244 53002 $

10-Day Weather Forecast

Almanac

Astronomy

Jul. 26, 2016 Rise Set
Actual Time
Civil Twilight
Nautical Twilight
Astronomical Twilight
Moon
Length of Visible Light
Length of Day
Tomorrow will be .
, % of the Moon is Illuminated

Today's Extremes

State Highs State Lows

Community

WunderPhotos

Upload Photos

1,927,556 photos uploaded!

WunderBlog® & News

Nearby

Air Quality

  Air Quality AQ Index Pollutant
Not available.

Snow Depth

Station Depth Elevation

Earthquake Activity

City Distance Mag. Time & Date
Minimum magnitude displayed is 2.5.

Coastal Water Temperatures

Place Temperature

Stations

Nearby Weather Stations

Station Location Temp. Windchill Dew Point Humidity Wind Precip. Elev Updated Type
                   

Watches & Warnings

There are currently no watches in effect.